Time;durP1;ratioP1;P1;durP2;ratioP2;P2;SDS_P1;SDS_P2;PMS_P1;PMS_P2;Temp;Humidity;BMP_temperature;BMP_pressure;BME280_temperature;BME280_humidity;BME280_pressure;Samples;Min_cycle;Max_cycle;Signal;HPM_P1;HPM_P2
2022/02/21 01:11:55;;;;;;;2.03;0.85;;;;;;;;;;6148576;23;20212;-89
2022/02/21 01:15:40;;;;;;;1.23;0.50;;;;;;;;;;6200965;23;20187;-89
2022/02/21 01:18:46;;;;;;;1.02;0.68;;;;;;;;;;6202563;23;20167;-89
2022/02/21 01:21:51;;;;;;;1.35;0.70;;;;;;;;;;6185421;23;20615;-90
2022/02/21 01:24:59;;;;;;;0.50;0.50;;;;;;;;;;6203075;23;20152;-90
2022/02/21 01:28:06;;;;;;;1.33;0.60;;;;;;;;;;6203499;23;20160;-90
2022/02/21 01:31:13;;;;;;;1.10;0.60;;;;;;;;;;6203122;23;20172;-90
2022/02/21 01:34:19;;;;;;;0.68;0.57;;;;;;;;;;6204039;23;20268;-90
2022/02/21 01:37:24;;;;;;;2.03;0.70;;;;;;;;;;6202435;23;20167;-91
2022/02/21 01:40:31;;;;;;;1.30;0.60;;;;;;;;;;6203126;23;20191;-90
2022/02/21 01:43:39;;;;;;;1.92;0.80;;;;;;;;;;6185106;23;20156;-90
2022/02/21 01:46:48;;;;;;;1.90;0.70;;;;;;;;;;6200089;23;20168;-91
2022/02/21 01:49:53;;;;;;;2.15;1.02;;;;;;;;;;6184125;23;20176;-89
2022/02/21 02:04:51;;;;;;;0.77;0.50;;;;;;;;;;6181335;23;20208;-88
2022/02/21 02:07:57;;;;;;;1.27;0.55;;;;;;;;;;6191301;23;20168;-88
2022/02/21 02:11:02;;;;;;;1.52;0.50;;;;;;;;;;6191422;23;20175;-88
2022/02/21 02:14:10;;;;;;;2.25;0.60;;;;;;;;;;6191149;23;20179;-87
2022/02/21 02:17:16;;;;;;;0.88;0.60;;;;;;;;;;6173974;23;20208;-86
2022/02/21 02:20:23;;;;;;;1.02;0.70;;;;;;;;;;6145193;23;20181;-88
2022/02/21 02:23:30;;;;;;;2.65;0.75;;;;;;;;;;6146828;23;20176;-88
2022/02/21 02:26:40;;;;;;;1.92;0.80;;;;;;;;;;6143674;23;20180;-87
2022/02/21 02:29:46;;;;;;;0.77;0.60;;;;;;;;;;6143814;23;20168;-87
2022/02/21 02:32:54;;;;;;;0.50;0.50;;;;;;;;;;6143658;23;20280;-88
2022/02/21 02:36:00;;;;;;;2.15;0.70;;;;;;;;;;6143376;23;20177;-87
2022/02/21 02:39:06;;;;;;;2.05;0.60;;;;;;;;;;6143839;23;20532;-87
2022/02/21 02:42:12;;;;;;;1.45;0.60;;;;;;;;;;6143760;23;20172;-87
2022/02/21 02:45:17;;;;;;;4.07;0.80;;;;;;;;;;6143228;23;20517;-87
2022/02/21 02:48:22;;;;;;;0.93;0.80;;;;;;;;;;6143631;23;20180;-88
2022/02/21 02:51:27;;;;;;;0.55;0.55;;;;;;;;;;6144183;23;20219;-87
2022/02/21 02:54:34;;;;;;;2.10;0.77;;;;;;;;;;6143864;23;20416;-87
2022/02/21 02:57:39;;;;;;;1.23;0.65;;;;;;;;;;6144187;23;20300;-87
2022/02/21 03:00:44;;;;;;;1.40;0.60;;;;;;;;;;6143483;23;20199;-88
2022/02/21 03:03:49;;;;;;;2.92;0.82;;;;;;;;;;6143858;23;20196;-87
2022/02/21 03:06:58;;;;;;;2.40;0.80;;;;;;;;;;6144031;23;20180;-87
2022/02/21 03:10:06;;;;;;;3.60;0.75;;;;;;;;;;6119146;23;20189;-88
2022/02/21 03:13:12;;;;;;;0.82;0.70;;;;;;;;;;6144297;23;20568;-88
2022/02/21 03:16:17;;;;;;;1.60;0.70;;;;;;;;;;6142301;23;20200;-88
2022/02/21 03:19:24;;;;;;;3.00;1.00;;;;;;;;;;6143832;23;20183;-88
2022/02/21 03:22:29;;;;;;;1.55;0.60;;;;;;;;;;6145733;23;20244;-87
2022/02/21 03:25:36;;;;;;;2.10;0.70;;;;;;;;;;6145014;23;20252;-88
2022/02/21 03:28:41;;;;;;;1.98;0.90;;;;;;;;;;6145768;23;20220;-88
2022/02/21 03:31:45;;;;;;;1.45;0.70;;;;;;;;;;6145336;23;20169;-88
2022/02/21 03:34:51;;;;;;;3.88;0.82;;;;;;;;;;6145085;23;20173;-87
2022/02/21 03:37:57;;;;;;;0.75;0.60;;;;;;;;;;6145681;23;20236;-87
2022/02/21 03:41:04;;;;;;;3.88;1.00;;;;;;;;;;6145391;23;20196;-88
2022/02/21 03:44:10;;;;;;;1.10;0.60;;;;;;;;;;6145494;23;20188;-87
2022/02/21 03:47:15;;;;;;;0.88;0.52;;;;;;;;;;6144634;23;20180;-89
2022/02/21 03:50:20;;;;;;;8.82;1.10;;;;;;;;;;6145016;23;20243;-88
2022/02/21 03:53:25;;;;;;;4.50;0.90;;;;;;;;;;6145204;23;20228;-87
2022/02/21 03:56:32;;;;;;;1.85;0.60;;;;;;;;;;6149238;23;20168;-88
2022/02/21 03:59:37;;;;;;;2.08;0.75;;;;;;;;;;6144866;23;20199;-88
2022/02/21 04:02:43;;;;;;;2.05;0.60;;;;;;;;;;6144887;23;20243;-88
2022/02/21 04:05:48;;;;;;;1.40;0.63;;;;;;;;;;6132186;23;20266;-89
2022/02/21 04:08:53;;;;;;;2.55;0.65;;;;;;;;;;6132589;23;20185;-88
2022/02/21 04:11:59;;;;;;;2.05;0.70;;;;;;;;;;6116205;23;20173;-88
2022/02/21 04:15:05;;;;;;;1.52;0.65;;;;;;;;;;6132522;23;20414;-89
2022/02/21 04:18:10;;;;;;;1.30;0.63;;;;;;;;;;6132246;23;20212;-88
2022/02/21 04:21:15;;;;;;;3.53;0.70;;;;;;;;;;6132802;23;20201;-89
2022/02/21 04:24:20;;;;;;;1.55;0.70;;;;;;;;;;6139177;23;20177;-88
2022/02/21 04:27:28;;;;;;;2.10;0.60;;;;;;;;;;6136471;23;20180;-89
2022/02/21 04:30:33;;;;;;;2.92;0.63;;;;;;;;;;6134169;23;20212;-89
2022/02/21 04:33:38;;;;;;;2.75;0.60;;;;;;;;;;6115456;23;20601;-89
2022/02/21 04:36:43;;;;;;;2.25;0.70;;;;;;;;;;6132165;23;20185;-89
2022/02/21 04:39:48;;;;;;;1.00;0.60;;;;;;;;;;6115397;23;20197;-88
2022/02/21 04:42:55;;;;;;;2.85;0.65;;;;;;;;;;6132398;23;20180;-88
2022/02/21 04:46:00;;;;;;;1.05;0.63;;;;;;;;;;6115346;23;20537;-88
2022/02/21 04:49:05;;;;;;;2.05;0.70;;;;;;;;;;6115702;23;20513;-89
2022/02/21 04:52:11;;;;;;;0.95;0.60;;;;;;;;;;6115827;23;20431;-88
2022/02/21 04:55:16;;;;;;;0.90;0.60;;;;;;;;;;6132027;23;20177;-88
2022/02/21 04:58:23;;;;;;;1.23;0.70;;;;;;;;;;6115378;23;20421;-88
2022/02/21 05:01:28;;;;;;;1.20;0.55;;;;;;;;;;6131587;23;20223;-87
2022/02/21 05:04:33;;;;;;;1.40;0.65;;;;;;;;;;6144714;23;20192;-88
2022/02/21 05:07:39;;;;;;;0.75;0.55;;;;;;;;;;6144550;23;20291;-87
2022/02/21 05:10:45;;;;;;;1.23;0.52;;;;;;;;;;6144622;23;20192;-87
2022/02/21 05:13:52;;;;;;;3.15;0.68;;;;;;;;;;6150727;23;20172;-87
2022/02/21 05:16:57;;;;;;;2.40;0.90;;;;;;;;;;6144077;23;20243;-88
2022/02/21 05:20:03;;;;;;;1.63;0.50;;;;;;;;;;6144683;23;20195;-87
2022/02/21 05:23:08;;;;;;;1.65;0.70;;;;;;;;;;6144831;23;20532;-88
2022/02/21 05:26:13;;;;;;;4.55;2.00;;;;;;;;;;6144124;23;20239;-88
2022/02/21 05:29:20;;;;;;;4.43;0.60;;;;;;;;;;6144263;23;20180;-88
2022/02/21 05:32:26;;;;;;;5.35;1.10;;;;;;;;;;6143990;23;20187;-87
2022/02/21 05:35:32;;;;;;;4.05;0.60;;;;;;;;;;6153410;23;20216;-89
2022/02/21 05:38:37;;;;;;;2.72;0.70;;;;;;;;;;6153148;23;20218;-87
2022/02/21 05:41:42;;;;;;;2.15;0.70;;;;;;;;;;6152482;23;20196;-87
2022/02/21 05:44:49;;;;;;;0.77;0.60;;;;;;;;;;6144228;23;20413;-88
2022/02/21 05:47:54;;;;;;;1.65;0.70;;;;;;;;;;6145912;23;20226;-87
2022/02/21 05:51:00;;;;;;;1.77;0.77;;;;;;;;;;6163593;23;20172;-88
2022/02/21 05:54:05;;;;;;;1.83;0.70;;;;;;;;;;6144507;23;20180;-87
2022/02/21 05:57:10;;;;;;;1.23;0.70;;;;;;;;;;6144247;23;20184;-88
2022/02/21 06:00:17;;;;;;;1.10;0.57;;;;;;;;;;6144878;23;20196;-88
2022/02/21 06:03:22;;;;;;;0.93;0.50;;;;;;;;;;6145011;23;20216;-87
2022/02/21 06:06:27;;;;;;;1.35;0.65;;;;;;;;;;6145307;23;20173;-87
2022/02/21 06:09:33;;;;;;;1.15;0.50;;;;;;;;;;6162051;23;20331;-86
2022/02/21 06:12:38;;;;;;;1.17;0.55;;;;;;;;;;6162518;23;20257;-87
2022/02/21 06:15:51;;;;;;;0.77;0.60;;;;;;;;;;6161184;23;20168;-86
2022/02/21 06:18:58;;;;;;;0.93;0.45;;;;;;;;;;6144962;23;20176;-90
2022/02/21 06:22:04;;;;;;;0.57;0.50;;;;;;;;;;6144204;23;20547;-88
2022/02/21 06:25:09;;;;;;;3.22;0.63;;;;;;;;;;6145218;23;20568;-87
2022/02/21 06:28:15;;;;;;;2.33;0.70;;;;;;;;;;6144365;23;20180;-87
2022/02/21 06:31:21;;;;;;;1.02;0.70;;;;;;;;;;6145164;23;20196;-87
2022/02/21 06:34:27;;;;;;;3.50;0.73;;;;;;;;;;6144921;23;20295;-88
2022/02/21 06:37:35;;;;;;;0.95;0.50;;;;;;;;;;6130041;23;20176;-88
2022/02/21 06:40:41;;;;;;;2.28;0.60;;;;;;;;;;6144994;23;20200;-88
2022/02/21 06:43:46;;;;;;;1.52;0.60;;;;;;;;;;6144331;23;20177;-88
2022/02/21 06:46:53;;;;;;;5.03;0.70;;;;;;;;;;6143063;23;20180;-88
2022/02/21 06:49:58;;;;;;;1.73;0.80;;;;;;;;;;6143268;23;20269;-85
2022/02/21 06:53:04;;;;;;;2.07;0.70;;;;;;;;;;6145358;23;20568;-87
2022/02/21 06:56:10;;;;;;;2.23;0.80;;;;;;;;;;6148219;23;20173;-89
2022/02/21 06:59:16;;;;;;;4.03;2.03;;;;;;;;;;6150556;23;20626;-87
2022/02/21 07:02:23;;;;;;;1.10;0.60;;;;;;;;;;6148475;23;20199;-86
2022/02/21 07:05:29;;;;;;;1.23;0.60;;;;;;;;;;6141957;23;20189;-86
2022/02/21 07:08:34;;;;;;;4.23;1.00;;;;;;;;;;6133029;23;20173;-87
2022/02/21 07:11:39;;;;;;;6.03;1.07;;;;;;;;;;6133627;23;20201;-87
2022/02/21 07:14:47;;;;;;;4.70;0.80;;;;;;;;;;6133884;23;20305;-88
2022/02/21 07:17:54;;;;;;;4.83;0.90;;;;;;;;;;6135290;23;20310;-88
2022/02/21 07:21:03;;;;;;;4.20;0.90;;;;;;;;;;6134722;23;20275;-88
2022/02/21 07:24:09;;;;;;;8.27;1.67;;;;;;;;;;6134007;23;20225;-88
2022/02/21 07:27:14;;;;;;;3.50;1.00;;;;;;;;;;6133990;23;20258;-88
2022/02/21 07:30:22;;;;;;;6.37;0.90;;;;;;;;;;6134578;23;20486;-87
2022/02/21 07:33:29;;;;;;;2.90;0.90;;;;;;;;;;6136470;23;20180;-88
2022/02/21 07:36:34;;;;;;;9.17;1.30;;;;;;;;;;6135317;23;20192;-87
2022/02/21 07:39:39;;;;;;;13.67;4.03;;;;;;;;;;6134156;23;20545;-88
2022/02/21 07:42:49;;;;;;;3.43;0.90;;;;;;;;;;6132681;23;20173;-88
2022/02/21 07:45:58;;;;;;;6.43;1.03;;;;;;;;;;6133253;23;20259;-88
2022/02/21 07:49:05;;;;;;;6.43;1.03;;;;;;;;;;6134352;23;20220;-88
2022/02/21 07:52:10;;;;;;;5.97;1.70;;;;;;;;;;6143283;23;20202;-88
2022/02/21 07:55:17;;;;;;;2.67;1.27;;;;;;;;;;6133355;23;20180;-87
2022/02/21 07:58:22;;;;;;;3.97;1.20;;;;;;;;;;6134965;23;20557;-86
2022/02/21 08:01:29;;;;;;;11.43;3.90;;;;;;;;;;6133153;23;20205;-87
2022/02/21 08:04:36;;;;;;;22.63;5.43;;;;;;;;;;6138316;23;20559;-88
2022/02/21 08:07:42;;;;;;;23.63;9.17;;;;;;;;;;6135019;23;20221;-88
2022/02/21 08:10:48;;;;;;;3.20;0.90;;;;;;;;;;6143029;23;20177;-87
2022/02/21 08:13:54;;;;;;;7.53;1.73;;;;;;;;;;6141643;23;20461;-89
2022/02/21 08:16:59;;;;;;;9.53;3.63;;;;;;;;;;6132141;23;20325;-87
2022/02/21 08:20:06;;;;;;;3.07;1.13;;;;;;;;;;6133275;23;20180;-87
2022/02/21 08:23:11;;;;;;;8.83;1.13;;;;;;;;;;6134057;23;20173;-88
2022/02/21 08:26:17;;;;;;;4.60;1.20;;;;;;;;;;6133337;23;20177;-89
2022/02/21 08:29:22;;;;;;;5.07;1.30;;;;;;;;;;6133692;23;20181;-88
2022/02/21 08:32:28;;;;;;;3.10;1.40;;;;;;;;;;6134742;23;20165;-87
2022/02/21 08:35:36;;;;;;;2.60;0.90;;;;;;;;;;6145778;23;20176;-87
2022/02/21 08:38:41;;;;;;;2.60;1.00;;;;;;;;;;6131586;23;20241;-87
2022/02/21 08:41:47;;;;;;;7.77;1.40;;;;;;;;;;6132537;23;20197;-89
2022/02/21 08:44:52;;;;;;;3.93;1.40;;;;;;;;;;6133417;23;20177;-89
2022/02/21 08:47:58;;;;;;;5.50;1.50;;;;;;;;;;6136074;23;20364;-89
2022/02/21 08:51:04;;;;;;;7.87;1.40;;;;;;;;;;6140435;23;20169;-89
2022/02/21 08:54:19;;;;;;;6.63;1.20;;;;;;;;;;6140276;23;20277;-87
2022/02/21 08:57:27;;;;;;;4.80;1.10;;;;;;;;;;6137151;23;20181;-88
2022/02/21 09:00:41;;;;;;;6.20;1.33;;;;;;;;;;6140550;23;20290;-89
2022/02/21 09:03:47;;;;;;;4.40;1.00;;;;;;;;;;6148785;23;20188;-89
2022/02/21 09:06:57;;;;;;;8.07;1.73;;;;;;;;;;6150658;23;20177;-88
2022/02/21 09:10:03;;;;;;;2.70;1.13;;;;;;;;;;6162617;23;20185;-89
2022/02/21 09:13:09;;;;;;;5.03;1.37;;;;;;;;;;6162379;23;20176;-88
2022/02/21 09:16:18;;;;;;;4.13;1.07;;;;;;;;;;6163152;23;20221;-88
2022/02/21 09:19:23;;;;;;;5.20;1.20;;;;;;;;;;6164668;23;20185;-88
2022/02/21 09:22:30;;;;;;;4.43;1.20;;;;;;;;;;6164647;23;20199;-88
2022/02/21 09:25:35;;;;;;;4.63;1.10;;;;;;;;;;6164700;23;20170;-88
2022/02/21 09:28:41;;;;;;;8.50;1.13;;;;;;;;;;6164877;23;20176;-89
2022/02/21 09:31:48;;;;;;;4.10;1.00;;;;;;;;;;6165186;23;20160;-89
2022/02/21 09:34:54;;;;;;;3.23;1.03;;;;;;;;;;6147395;23;20221;-88
2022/02/21 09:38:01;;;;;;;5.30;1.10;;;;;;;;;;6164881;23;20205;-88
2022/02/21 09:41:06;;;;;;;2.33;0.70;;;;;;;;;;6165066;23;20156;-88
2022/02/21 09:44:12;;;;;;;1.80;0.73;;;;;;;;;;6165010;23;20152;-90
2022/02/21 09:47:19;;;;;;;7.20;1.20;;;;;;;;;;6165476;23;20183;-88
2022/02/21 09:50:26;;;;;;;3.47;0.80;;;;;;;;;;6165635;23;20171;-89
2022/02/21 09:53:34;;;;;;;5.10;1.00;;;;;;;;;;6164658;23;20152;-88
2022/02/21 09:56:40;;;;;;;7.90;1.20;;;;;;;;;;6163947;23;20201;-89
2022/02/21 09:59:47;;;;;;;8.03;1.20;;;;;;;;;;6163802;23;20244;-88
2022/02/21 10:02:53;;;;;;;5.80;1.40;;;;;;;;;;6164105;23;20192;-89
2022/02/21 10:05:58;;;;;;;4.87;1.07;;;;;;;;;;6133617;23;20149;-88
2022/02/21 10:09:11;;;;;;;12.23;1.50;;;;;;;;;;6133887;23;20160;-88
2022/02/21 10:12:26;;;;;;;9.43;1.30;;;;;;;;;;6135206;23;20158;-87
2022/02/21 10:15:32;;;;;;;10.17;1.20;;;;;;;;;;6134927;23;20160;-89
2022/02/21 10:18:39;;;;;;;4.93;1.10;;;;;;;;;;6135442;23;20166;-88
2022/02/21 10:22:01;;;;;;;10.17;1.40;;;;;;;;;;6135192;23;20226;-88
2022/02/21 10:25:17;;;;;;;7.27;1.27;;;;;;;;;;6125982;23;20201;-88
2022/02/21 10:28:31;;;;;;;6.93;1.50;;;;;;;;;;6142113;23;20272;-89
2022/02/21 10:31:36;;;;;;;3.57;1.20;;;;;;;;;;6123163;23;20262;-89
2022/02/21 10:34:42;;;;;;;2.33;0.80;;;;;;;;;;6125496;23;20291;-88
2022/02/21 10:37:48;;;;;;;5.73;1.00;;;;;;;;;;6116180;23;20463;-88
2022/02/21 10:41:07;;;;;;;6.63;1.13;;;;;;;;;;6114829;23;20172;-87
2022/02/21 10:44:21;;;;;;;4.50;1.20;;;;;;;;;;6114763;23;20177;-87
2022/02/21 10:47:29;;;;;;;9.10;1.23;;;;;;;;;;6115172;23;20544;-88
2022/02/21 10:50:35;;;;;;;7.67;1.17;;;;;;;;;;6115056;23;20499;-88
2022/02/21 10:53:41;;;;;;;6.87;1.37;;;;;;;;;;6115994;23;20237;-90
2022/02/21 10:56:48;;;;;;;11.27;1.50;;;;;;;;;;6125686;23;20201;-89
2022/02/21 10:59:53;;;;;;;9.83;1.87;;;;;;;;;;6134089;23;20169;-88
2022/02/21 11:03:00;;;;;;;16.87;1.43;;;;;;;;;;6134175;23;20197;-87
2022/02/21 11:06:06;;;;;;;6.00;1.23;;;;;;;;;;6133627;23;20181;-87
2022/02/21 11:09:14;;;;;;;5.63;1.10;;;;;;;;;;6131126;23;20164;-86
2022/02/21 11:12:25;;;;;;;2.77;0.90;;;;;;;;;;6118495;23;20459;-88
2022/02/21 11:15:32;;;;;;;3.13;0.87;;;;;;;;;;6098177;23;20174;-88
2022/02/21 11:18:38;;;;;;;5.77;1.00;;;;;;;;;;6098592;23;20176;-88
2022/02/21 11:21:46;;;;;;;8.50;1.40;;;;;;;;;;6115947;23;20499;-87
2022/02/21 11:24:53;;;;;;;1.40;0.77;;;;;;;;;;6115825;23;20177;-87
2022/02/21 11:28:04;;;;;;;3.83;1.07;;;;;;;;;;6115897;23;20188;-87
2022/02/21 11:31:10;;;;;;;8.07;1.20;;;;;;;;;;6115329;23;20294;-87
2022/02/21 11:34:16;;;;;;;11.40;1.87;;;;;;;;;;6134084;23;20172;-88
2022/02/21 11:37:23;;;;;;;6.40;1.30;;;;;;;;;;6132950;23;20213;-87
2022/02/21 11:40:31;;;;;;;4.97;1.10;;;;;;;;;;6133280;23;20410;-88
2022/02/21 11:43:41;;;;;;;7.90;1.00;;;;;;;;;;6135884;23;20225;-88
2022/02/21 11:46:46;;;;;;;7.97;1.40;;;;;;;;;;6135476;23;20182;-87
2022/02/21 11:49:56;;;;;;;9.70;1.17;;;;;;;;;;6136303;23;20198;-88
2022/02/21 11:53:21;;;;;;;3.87;0.93;;;;;;;;;;6136028;23;20164;-87
2022/02/21 11:56:57;;;;;;;5.13;0.97;;;;;;;;;;6135713;23;20444;-88
2022/02/21 12:00:31;;;;;;;8.13;1.30;;;;;;;;;;6166397;23;20215;-88
2022/02/21 12:03:38;;;;;;;6.73;1.00;;;;;;;;;;6209801;23;20207;-88
2022/02/21 12:06:55;;;;;;;7.28;1.48;;;;;;;;;;6194548;23;20160;-85
2022/02/21 12:10:11;;;;;;;6.22;1.30;;;;;;;;;;6211863;23;20200;-88
2022/02/21 12:13:21;;;;;;;3.58;0.93;;;;;;;;;;6193381;23;20156;-87
2022/02/21 12:16:31;;;;;;;6.72;1.20;;;;;;;;;;6177302;23;20176;-89
2022/02/21 12:19:41;;;;;;;1.52;0.85;;;;;;;;;;6192471;23;20168;-87
2022/02/21 12:23:01;;;;;;;6.53;1.17;;;;;;;;;;6178501;23;20191;-89
2022/02/21 12:26:19;;;;;;;7.25;1.27;;;;;;;;;;6176753;23;20505;-88
2022/02/21 12:29:26;;;;;;;6.15;1.25;;;;;;;;;;6194080;23;20259;-88
2022/02/21 12:32:31;;;;;;;5.93;1.50;;;;;;;;;;6177013;23;20295;-86
2022/02/21 12:35:45;;;;;;;7.47;1.20;;;;;;;;;;6193856;23;20227;-88
2022/02/21 12:38:59;;;;;;;8.05;1.75;;;;;;;;;;6147584;23;20180;-88
2022/02/21 12:42:06;;;;;;;8.80;1.70;;;;;;;;;;6152676;23;20196;-87
2022/02/21 12:45:23;;;;;;;5.40;1.20;;;;;;;;;;6157283;23;20536;-88
2022/02/21 12:48:36;;;;;;;5.10;1.50;;;;;;;;;;6156709;23;20172;-89
2022/02/21 12:51:49;;;;;;;5.63;1.27;;;;;;;;;;6147566;23;20177;-88
2022/02/21 12:54:58;;;;;;;9.32;1.48;;;;;;;;;;6145850;23;20180;-88
2022/02/21 12:58:11;;;;;;;7.13;1.30;;;;;;;;;;6146187;23;20220;-88
2022/02/21 13:01:18;;;;;;;6.03;1.00;;;;;;;;;;6149313;23;20179;-87
2022/02/21 13:08:09;;;;;;;6.45;1.40;;;;;;;;;;6155560;23;20169;-87
2022/02/21 13:11:25;;;;;;;3.90;1.20;;;;;;;;;;6172771;23;20184;-87
2022/02/21 13:14:32;;;;;;;3.70;0.90;;;;;;;;;;6156555;23;20169;-88
2022/02/21 13:17:37;;;;;;;5.60;1.23;;;;;;;;;;6156735;23;20169;-88
2022/02/21 13:20:46;;;;;;;5.63;1.27;;;;;;;;;;6164023;23;20185;-88
2022/02/21 13:23:56;;;;;;;4.50;0.98;;;;;;;;;;6181045;23;20268;-88
2022/02/21 13:27:08;;;;;;;9.27;1.30;;;;;;;;;;6163391;23;20201;-87
2022/02/21 13:30:22;;;;;;;5.55;1.02;;;;;;;;;;6147213;23;20243;-88
2022/02/21 13:33:27;;;;;;;7.88;1.15;;;;;;;;;;6146621;23;20235;-88
2022/02/21 13:36:34;;;;;;;4.68;0.98;;;;;;;;;;6145099;23;20208;-88
2022/02/21 13:39:41;;;;;;;6.33;1.17;;;;;;;;;;6150563;23;20173;-89
2022/02/21 13:42:57;;;;;;;6.85;1.23;;;;;;;;;;6149243;23;20204;-88
2022/02/21 13:46:03;;;;;;;4.63;0.93;;;;;;;;;;6148148;23;20176;-90
2022/02/21 13:49:09;;;;;;;2.55;1.08;;;;;;;;;;6146794;23;20501;-89
2022/02/21 13:52:14;;;;;;;5.45;1.05;;;;;;;;;;6146836;23;20456;-89
2022/02/21 13:55:24;;;;;;;7.90;1.20;;;;;;;;;;6151500;23;20246;-89
2022/02/21 13:58:44;;;;;;;6.20;1.38;;;;;;;;;;6151608;23;20200;-89
2022/02/21 14:01:56;;;;;;;5.25;0.95;;;;;;;;;;6151045;23;20442;-87
2022/02/21 14:05:08;;;;;;;6.22;0.98;;;;;;;;;;6145288;23;20185;-88
2022/02/21 14:08:14;;;;;;;7.18;1.42;;;;;;;;;;6147007;23;20177;-88
2022/02/21 14:11:31;;;;;;;4.33;1.23;;;;;;;;;;6146793;23;20192;-88
2022/02/21 14:14:42;;;;;;;2.93;0.60;;;;;;;;;;6146374;23;20356;-87
2022/02/21 14:17:48;;;;;;;3.57;0.93;;;;;;;;;;6147394;23;20238;-89
2022/02/21 14:20:54;;;;;;;3.33;0.80;;;;;;;;;;6152005;23;20409;-88
2022/02/21 14:24:05;;;;;;;8.33;1.00;;;;;;;;;;6145705;23;20201;-89
2022/02/21 14:27:10;;;;;;;13.83;1.40;;;;;;;;;;6146068;23;20505;-89
2022/02/21 14:30:27;;;;;;;2.67;0.90;;;;;;;;;;6145810;23;20238;-88
2022/02/21 14:33:33;;;;;;;5.10;1.00;;;;;;;;;;6148792;23;20172;-87
2022/02/21 14:36:39;;;;;;;4.90;1.03;;;;;;;;;;6145748;23;20492;-89
2022/02/21 14:39:44;;;;;;;4.47;1.20;;;;;;;;;;6144444;23;20176;-89
2022/02/21 14:42:49;;;;;;;6.00;1.40;;;;;;;;;;6144725;23;20426;-89
2022/02/21 14:46:02;;;;;;;6.07;1.23;;;;;;;;;;6144064;23;20192;-89
2022/02/21 14:49:08;;;;;;;5.97;1.10;;;;;;;;;;6145470;23;20288;-88
2022/02/21 14:52:14;;;;;;;9.53;1.40;;;;;;;;;;6146120;23;20246;-88
2022/02/21 14:55:19;;;;;;;5.57;1.30;;;;;;;;;;6147494;23;20172;-89
2022/02/21 14:58:25;;;;;;;3.73;1.17;;;;;;;;;;6145408;23;20184;-88
2022/02/21 15:01:36;;;;;;;4.73;1.47;;;;;;;;;;6145316;23;20195;-88
2022/02/21 15:04:47;;;;;;;8.87;1.33;;;;;;;;;;6146164;23;20239;-87
2022/02/21 15:07:52;;;;;;;4.75;1.10;;;;;;;;;;6145902;23;20180;-88
2022/02/21 15:11:03;;;;;;;4.88;1.27;;;;;;;;;;6145003;23;20239;-88
2022/02/21 15:14:12;;;;;;;7.63;1.20;;;;;;;;;;6147097;23;20169;-88
2022/02/21 15:17:19;;;;;;;12.02;1.30;;;;;;;;;;6146706;23;20180;-88
2022/02/21 15:20:25;;;;;;;1.55;0.70;;;;;;;;;;6147367;23;20185;-87
2022/02/21 15:23:31;;;;;;;4.35;1.00;;;;;;;;;;6146104;23;20248;-88
2022/02/21 15:26:36;;;;;;;5.30;1.50;;;;;;;;;;6146406;23;20176;-89
2022/02/21 15:29:42;;;;;;;7.23;1.40;;;;;;;;;;6146582;23;20508;-88
2022/02/21 15:32:49;;;;;;;5.53;1.50;;;;;;;;;;6147441;23;20188;-89
2022/02/21 15:35:54;;;;;;;7.70;1.53;;;;;;;;;;6165242;23;20189;-88
2022/02/21 15:39:00;;;;;;;5.47;1.47;;;;;;;;;;6147520;23;20215;-89
2022/02/21 15:42:07;;;;;;;5.27;1.40;;;;;;;;;;6146973;23;20176;-88
2022/02/21 15:48:38;;;;;;;3.77;0.80;;;;;;;;;;6164555;23;20362;-88
2022/02/21 15:51:44;;;;;;;4.43;1.30;;;;;;;;;;6148202;23;20176;-89
2022/02/21 15:54:50;;;;;;;5.20;1.30;;;;;;;;;;6145968;23;20300;-89
2022/02/21 15:57:55;;;;;;;6.15;1.40;;;;;;;;;;6146566;23;20172;-89
2022/02/21 16:01:02;;;;;;;5.28;1.05;;;;;;;;;;6134072;23;20209;-89
2022/02/21 16:04:09;;;;;;;5.67;1.20;;;;;;;;;;6134696;23;20196;-87
2022/02/21 16:07:15;;;;;;;6.07;1.23;;;;;;;;;;6136544;23;20172;-87
2022/02/21 16:10:20;;;;;;;4.33;1.20;;;;;;;;;;6135025;23;20181;-88
2022/02/21 16:13:27;;;;;;;3.77;1.33;;;;;;;;;;6134667;23;20169;-87
2022/02/21 16:16:32;;;;;;;6.40;1.30;;;;;;;;;;6133743;23;20177;-87
2022/02/21 16:19:40;;;;;;;6.20;1.10;;;;;;;;;;6134998;23;20193;-88
2022/02/21 16:22:45;;;;;;;6.43;1.30;;;;;;;;;;6133456;23;20176;-87
2022/02/21 16:25:51;;;;;;;6.93;1.70;;;;;;;;;;6132546;23;20228;-87
2022/02/21 16:28:57;;;;;;;6.77;1.23;;;;;;;;;;6135459;23;20177;-88
2022/02/21 16:32:03;;;;;;;6.93;1.37;;;;;;;;;;6132768;23;20259;-87
2022/02/21 16:35:15;;;;;;;6.77;1.60;;;;;;;;;;6133689;23;20205;-89
2022/02/21 16:38:24;;;;;;;7.63;1.27;;;;;;;;;;6133230;23;20297;-88
2022/02/21 16:41:30;;;;;;;6.77;1.70;;;;;;;;;;6132615;23;20173;-89
2022/02/21 16:44:37;;;;;;;7.90;1.50;;;;;;;;;;6133155;23;20197;-88
2022/02/21 16:47:45;;;;;;;5.63;1.60;;;;;;;;;;6133452;23;20181;-88
2022/02/21 16:50:52;;;;;;;6.20;1.70;;;;;;;;;;6133096;23;20177;-88
2022/02/21 16:53:58;;;;;;;5.57;2.00;;;;;;;;;;6133893;23;20177;-89
2022/02/21 16:57:06;;;;;;;7.70;1.67;;;;;;;;;;6136108;23;20181;-90
2022/02/21 17:00:16;;;;;;;5.03;1.37;;;;;;;;;;6147431;23;20222;-90
2022/02/21 17:03:22;;;;;;;11.00;2.23;;;;;;;;;;6148355;23;20533;-88
2022/02/21 17:06:32;;;;;;;8.33;1.73;;;;;;;;;;6146777;23;20200;-88
2022/02/21 17:09:38;;;;;;;10.40;1.57;;;;;;;;;;6146775;23;20176;-89
2022/02/21 17:12:43;;;;;;;8.23;1.67;;;;;;;;;;6145407;23;20173;-88
2022/02/21 17:15:50;;;;;;;6.90;1.47;;;;;;;;;;6153991;23;20219;-88
2022/02/21 17:18:56;;;;;;;4.10;1.27;;;;;;;;;;6158021;23;20250;-87
2022/02/21 17:22:03;;;;;;;10.63;1.60;;;;;;;;;;6151839;23;20190;-87
2022/02/21 17:25:17;;;;;;;7.10;1.70;;;;;;;;;;6161827;23;20208;-89
2022/02/21 17:28:23;;;;;;;7.07;1.43;;;;;;;;;;6163735;23;20157;-88
2022/02/21 17:31:29;;;;;;;4.03;1.30;;;;;;;;;;6163147;23;20196;-87
2022/02/21 17:34:34;;;;;;;8.40;1.40;;;;;;;;;;6164490;23;20156;-87
2022/02/21 17:37:41;;;;;;;8.30;1.60;;;;;;;;;;6164225;23;20177;-88
2022/02/21 17:40:46;;;;;;;7.97;1.50;;;;;;;;;;6181062;23;20448;-86
2022/02/21 17:43:51;;;;;;;6.27;1.70;;;;;;;;;;6158947;23;20201;-87
2022/02/21 17:46:59;;;;;;;6.13;1.40;;;;;;;;;;6162554;23;20225;-86
2022/02/21 17:50:04;;;;;;;4.77;1.20;;;;;;;;;;6163758;23;20191;-87
2022/02/21 17:53:11;;;;;;;6.30;1.30;;;;;;;;;;6164192;23;20197;-88
2022/02/21 17:56:17;;;;;;;8.03;1.70;;;;;;;;;;6162855;23;20205;-87
2022/02/21 17:59:22;;;;;;;7.70;1.50;;;;;;;;;;6163462;23;20177;-89
2022/02/21 18:02:29;;;;;;;6.93;1.43;;;;;;;;;;6179653;23;20196;-86
2022/02/21 18:05:35;;;;;;;8.80;1.53;;;;;;;;;;6159560;23;20205;-88
2022/02/21 18:08:42;;;;;;;8.10;2.07;;;;;;;;;;6162513;23;20208;-88
2022/02/21 18:11:48;;;;;;;6.13;1.63;;;;;;;;;;6160501;23;20172;-87
2022/02/21 18:14:54;;;;;;;6.00;1.40;;;;;;;;;;6147935;23;20581;-86
2022/02/21 18:17:59;;;;;;;7.53;1.47;;;;;;;;;;6153295;23;20176;-87
2022/02/21 18:21:06;;;;;;;4.57;1.63;;;;;;;;;;6148936;23;20220;-88
2022/02/21 18:24:13;;;;;;;7.63;1.40;;;;;;;;;;6153296;23;20195;-89
2022/02/21 18:27:19;;;;;;;7.60;1.53;;;;;;;;;;6160247;23;20211;-89
2022/02/21 18:30:24;;;;;;;7.50;1.57;;;;;;;;;;6152466;23;20284;-89
2022/02/21 18:33:31;;;;;;;10.30;2.30;;;;;;;;;;6150188;23;20520;-90
2022/02/21 18:36:36;;;;;;;6.80;2.33;;;;;;;;;;6152356;23;20244;-89
2022/02/21 18:39:44;;;;;;;6.17;1.37;;;;;;;;;;6151706;23;20180;-88
2022/02/21 18:42:50;;;;;;;6.10;1.40;;;;;;;;;;6155655;23;20180;-88
2022/02/21 18:45:57;;;;;;;7.47;1.30;;;;;;;;;;6155985;23;20176;-88
2022/02/21 18:49:02;;;;;;;3.57;1.20;;;;;;;;;;6160843;23;20196;-88
2022/02/21 18:52:08;;;;;;;10.03;1.70;;;;;;;;;;6165632;23;20217;-88
2022/02/21 18:55:16;;;;;;;5.03;1.10;;;;;;;;;;6165484;23;20160;-88
2022/02/21 18:58:22;;;;;;;5.67;1.73;;;;;;;;;;6152152;23;20232;-87
2022/02/21 19:01:27;;;;;;;5.47;1.10;;;;;;;;;;6137181;23;20341;-88
2022/02/21 19:04:31;;;;;;;4.97;1.10;;;;;;;;;;6136551;23;20467;-88
2022/02/21 19:07:36;;;;;;;6.67;1.13;;;;;;;;;;6136024;23;20256;-88
2022/02/21 19:10:44;;;;;;;8.37;1.50;;;;;;;;;;6135634;23;20177;-88
2022/02/21 19:13:49;;;;;;;10.77;1.80;;;;;;;;;;6134724;23;20220;-87
2022/02/21 19:16:55;;;;;;;3.20;0.63;;;;;;;;;;6132894;23;20181;-88
2022/02/21 19:20:01;;;;;;;3.37;1.00;;;;;;;;;;6135073;23;20181;-87
2022/02/21 19:23:07;;;;;;;12.60;2.27;;;;;;;;;;6136031;23;20181;-86
2022/02/21 19:26:15;;;;;;;7.33;1.40;;;;;;;;;;6133915;23;20469;-88
2022/02/21 19:29:21;;;;;;;3.90;1.00;;;;;;;;;;6144167;23;20206;-86
2022/02/21 19:32:29;;;;;;;3.80;0.90;;;;;;;;;;6150999;23;20265;-87
2022/02/21 19:35:35;;;;;;;4.43;1.13;;;;;;;;;;6151770;23;20201;-89
2022/02/21 19:38:41;;;;;;;3.83;1.07;;;;;;;;;;6150029;23;20229;-88
2022/02/21 19:41:50;;;;;;;1.17;0.80;;;;;;;;;;6148885;23;20200;-87
2022/02/21 19:44:58;;;;;;;6.40;1.40;;;;;;;;;;6150270;23;20300;-87
2022/02/21 19:48:06;;;;;;;6.13;1.40;;;;;;;;;;6149518;23;20202;-88
2022/02/21 19:51:11;;;;;;;5.33;1.17;;;;;;;;;;6140585;23;20201;-88
2022/02/21 19:54:16;;;;;;;7.77;1.80;;;;;;;;;;6136350;23;20185;-87
2022/02/21 19:57:23;;;;;;;8.70;1.40;;;;;;;;;;6138098;23;20296;-86
2022/02/21 20:00:28;;;;;;;11.27;1.70;;;;;;;;;;6152148;23;20201;-88
2022/02/21 20:03:34;;;;;;;5.10;0.90;;;;;;;;;;6152474;23;20250;-87
2022/02/21 20:06:39;;;;;;;4.73;1.10;;;;;;;;;;6150585;23;20206;-87
2022/02/21 20:09:45;;;;;;;3.33;0.93;;;;;;;;;;6148053;23;20227;-88
2022/02/21 20:12:54;;;;;;;8.23;1.40;;;;;;;;;;6152070;23;20193;-87